sensor_id;sensor_type;location;lat;lon;timestamp;temperature;humidity
24436;DHT22;12616;52.470;13.436;2022-07-03T00:01:34;19.70;99.90
24436;DHT22;12616;52.470;13.436;2022-07-03T00:04:01;19.60;99.90
24436;DHT22;12616;52.470;13.436;2022-07-03T00:06:28;19.50;99.90
24436;DHT22;12616;52.470;13.436;2022-07-03T00:08:57;19.50;99.90
24436;DHT22;12616;52.470;13.436;2022-07-03T00:11:25;19.50;99.90
24436;DHT22;12616;52.470;13.436;2022-07-03T00:13:52;19.40;99.90
24436;DHT22;12616;52.470;13.436;2022-07-03T00:16:19;19.40;99.90
24436;DHT22;12616;52.470;13.436;2022-07-03T00:18:45;19.30;99.90
24436;DHT22;12616;52.470;13.436;2022-07-03T00:21:17;19.30;99.90
24436;DHT22;12616;52.470;13.436;2022-07-03T00:23:49;19.30;99.90
24436;DHT22;12616;52.470;13.436;2022-07-03T00:26:20;19.20;99.90
24436;DHT22;12616;52.470;13.436;2022-07-03T00:28:49;19.20;99.90
24436;DHT22;12616;52.470;13.436;2022-07-03T00:31:16;19.10;99.90
24436;DHT22;12616;52.470;13.436;2022-07-03T00:33:44;19.00;99.90
24436;DHT22;12616;52.470;13.436;2022-07-03T00:36:11;19.00;99.90
24436;DHT22;12616;52.470;13.436;2022-07-03T00:38:38;19.00;99.90
24436;DHT22;12616;52.470;13.436;2022-07-03T00:41:05;18.90;99.90
24436;DHT22;12616;52.470;13.436;2022-07-03T00:43:32;18.90;99.90
24436;DHT22;12616;52.470;13.436;2022-07-03T00:46:06;18.80;99.90
24436;DHT22;12616;52.470;13.436;2022-07-03T00:48:36;18.80;99.90
24436;DHT22;12616;52.470;13.436;2022-07-03T00:51:06;18.80;99.90
24436;DHT22;12616;52.470;13.436;2022-07-03T00:53:33;18.80;99.90
24436;DHT22;12616;52.470;13.436;2022-07-03T00:56:03;18.80;99.90
24436;DHT22;12616;52.470;13.436;2022-07-03T00:58:31;18.70;99.90
24436;DHT22;12616;52.470;13.436;2022-07-03T01:01:00;18.70;99.90
24436;DHT22;12616;52.470;13.436;2022-07-03T01:03:32;18.70;99.90
24436;DHT22;12616;52.470;13.436;2022-07-03T01:06:04;18.60;99.90
24436;DHT22;12616;52.470;13.436;2022-07-03T01:08:40;18.60;99.90
24436;DHT22;12616;52.470;13.436;2022-07-03T01:11:10;18.60;99.90
24436;DHT22;12616;52.470;13.436;2022-07-03T01:13:45;18.60;99.90
24436;DHT22;12616;52.470;13.436;2022-07-03T01:16:21;18.60;99.90
24436;DHT22;12616;52.470;13.436;2022-07-03T01:18:53;18.60;99.90
24436;DHT22;12616;52.470;13.436;2022-07-03T01:21:28;18.60;99.90
24436;DHT22;12616;52.470;13.436;2022-07-03T01:24:17;18.50;99.90
24436;DHT22;12616;52.470;13.436;2022-07-03T01:26:55;18.60;99.90
24436;DHT22;12616;52.470;13.436;2022-07-03T01:29:28;18.50;99.90
24436;DHT22;12616;52.470;13.436;2022-07-03T01:31:58;18.50;99.90
24436;DHT22;12616;52.470;13.436;2022-07-03T01:34:30;18.60;99.90
24436;DHT22;12616;52.470;13.436;2022-07-03T01:37:00;18.60;99.90
24436;DHT22;12616;52.470;13.436;2022-07-03T01:39:28;18.70;99.90
24436;DHT22;12616;52.470;13.436;2022-07-03T01:41:59;18.60;99.90
24436;DHT22;12616;52.470;13.436;2022-07-03T01:44:27;18.40;99.90
24436;DHT22;12616;52.470;13.436;2022-07-03T01:46:57;18.50;99.90
24436;DHT22;12616;52.470;13.436;2022-07-03T01:49:26;18.50;99.90
24436;DHT22;12616;52.470;13.436;2022-07-03T01:51:53;18.40;99.90
24436;DHT22;12616;52.470;13.436;2022-07-03T01:54:24;18.30;99.90
24436;DHT22;12616;52.470;13.436;2022-07-03T01:56:52;18.20;99.90
24436;DHT22;12616;52.470;13.436;2022-07-03T01:59:21;18.10;99.90
24436;DHT22;12616;52.470;13.436;2022-07-03T02:01:51;18.10;99.90
24436;DHT22;12616;52.470;13.436;2022-07-03T02:04:24;18.10;99.90
24436;DHT22;12616;52.470;13.436;2022-07-03T02:07:01;18.00;99.90
24436;DHT22;12616;52.470;13.436;2022-07-03T02:09:35;18.00;99.90
24436;DHT22;12616;52.470;13.436;2022-07-03T02:12:04;18.00;99.90
24436;DHT22;12616;52.470;13.436;2022-07-03T02:14:36;18.10;99.90
24436;DHT22;12616;52.470;13.436;2022-07-03T02:17:15;18.10;99.90
24436;DHT22;12616;52.470;13.436;2022-07-03T02:19:52;18.00;99.90
24436;DHT22;12616;52.470;13.436;2022-07-03T02:22:21;18.00;99.90
24436;DHT22;12616;52.470;13.436;2022-07-03T02:24:52;18.00;99.90
24436;DHT22;12616;52.470;13.436;2022-07-03T02:27:20;17.90;99.90
24436;DHT22;12616;52.470;13.436;2022-07-03T02:29:54;17.90;99.90
24436;DHT22;12616;52.470;13.436;2022-07-03T02:32:22;17.90;99.90
24436;DHT22;12616;52.470;13.436;2022-07-03T02:34:55;18.00;99.90
24436;DHT22;12616;52.470;13.436;2022-07-03T02:37:29;18.00;99.90
24436;DHT22;12616;52.470;13.436;2022-07-03T02:40:02;18.00;99.90
24436;DHT22;12616;52.470;13.436;2022-07-03T02:42:35;17.80;99.90
24436;DHT22;12616;52.470;13.436;2022-07-03T02:45:08;17.70;99.90
24436;DHT22;12616;52.470;13.436;2022-07-03T02:47:44;17.60;99.90
24436;DHT22;12616;52.470;13.436;2022-07-03T02:50:16;17.60;99.90
24436;DHT22;12616;52.470;13.436;2022-07-03T02:52:52;17.60;99.90
24436;DHT22;12616;52.470;13.436;2022-07-03T02:55:33;17.80;99.90
24436;DHT22;12616;52.470;13.436;2022-07-03T02:58:10;17.70;99.90
24436;DHT22;12616;52.470;13.436;2022-07-03T03:00:46;17.70;99.90
24436;DHT22;12616;52.470;13.436;2022-07-03T03:03:17;17.70;99.90
24436;DHT22;12616;52.470;13.436;2022-07-03T03:05:50;17.70;99.90
24436;DHT22;12616;52.470;13.436;2022-07-03T03:08:27;17.70;99.90
24436;DHT22;12616;52.470;13.436;2022-07-03T03:11:01;17.80;99.90
24436;DHT22;12616;52.470;13.436;2022-07-03T03:13:31;17.80;99.90
24436;DHT22;12616;52.470;13.436;2022-07-03T03:16:04;17.80;99.90
24436;DHT22;12616;52.470;13.436;2022-07-03T03:18:34;17.70;99.90
24436;DHT22;12616;52.470;13.436;2022-07-03T03:21:01;17.70;99.90
24436;DHT22;12616;52.470;13.436;2022-07-03T03:23:42;17.70;99.90
24436;DHT22;12616;52.470;13.436;2022-07-03T03:26:09;17.70;99.90
24436;DHT22;12616;52.470;13.436;2022-07-03T03:28:36;17.80;99.90
24436;DHT22;12616;52.470;13.436;2022-07-03T03:31:05;17.70;99.90
24436;DHT22;12616;52.470;13.436;2022-07-03T03:33:36;17.80;99.90
24436;DHT22;12616;52.470;13.436;2022-07-03T03:36:06;17.80;99.90
24436;DHT22;12616;52.470;13.436;2022-07-03T03:38:33;17.90;99.90
24436;DHT22;12616;52.470;13.436;2022-07-03T03:41:01;17.90;99.90
24436;DHT22;12616;52.470;13.436;2022-07-03T03:43:28;17.90;99.90
24436;DHT22;12616;52.470;13.436;2022-07-03T03:45:55;17.90;99.90
24436;DHT22;12616;52.470;13.436;2022-07-03T03:48:24;17.90;99.90
24436;DHT22;12616;52.470;13.436;2022-07-03T03:50:51;17.90;99.90
24436;DHT22;12616;52.470;13.436;2022-07-03T03:53:18;17.80;99.90
24436;DHT22;12616;52.470;13.436;2022-07-03T03:55:59;17.90;99.90
24436;DHT22;12616;52.470;13.436;2022-07-03T03:58:26;18.00;99.90
24436;DHT22;12616;52.470;13.436;2022-07-03T04:00:54;18.00;99.90
24436;DHT22;12616;52.470;13.436;2022-07-03T04:03:21;18.00;99.90
24436;DHT22;12616;52.470;13.436;2022-07-03T04:05:49;17.90;99.90
24436;DHT22;12616;52.470;13.436;2022-07-03T04:08:16;17.90;99.90
24436;DHT22;12616;52.470;13.436;2022-07-03T04:10:42;17.90;99.90
24436;DHT22;12616;52.470;13.436;2022-07-03T04:13:09;17.90;99.90
24436;DHT22;12616;52.470;13.436;2022-07-03T04:15:36;18.00;99.90
24436;DHT22;12616;52.470;13.436;2022-07-03T04:18:03;18.00;99.90
24436;DHT22;12616;52.470;13.436;2022-07-03T04:20:29;18.10;99.90
24436;DHT22;12616;52.470;13.436;2022-07-03T04:22:58;18.10;99.90
24436;DHT22;12616;52.470;13.436;2022-07-03T04:25:25;18.10;99.90
24436;DHT22;12616;52.470;13.436;2022-07-03T04:27:52;18.10;99.90
24436;DHT22;12616;52.470;13.436;2022-07-03T04:30:19;18.10;99.90
24436;DHT22;12616;52.470;13.436;2022-07-03T04:32:46;18.20;99.90
24436;DHT22;12616;52.470;13.436;2022-07-03T04:35:13;18.30;99.90
24436;DHT22;12616;52.470;13.436;2022-07-03T04:37:41;18.30;99.90
24436;DHT22;12616;52.470;13.436;2022-07-03T04:40:10;18.30;99.90
24436;DHT22;12616;52.470;13.436;2022-07-03T04:42:37;18.40;99.90
24436;DHT22;12616;52.470;13.436;2022-07-03T04:45:05;18.40;99.90
24436;DHT22;12616;52.470;13.436;2022-07-03T04:47:31;18.50;99.90
24436;DHT22;12616;52.470;13.436;2022-07-03T04:49:58;18.50;99.90
24436;DHT22;12616;52.470;13.436;2022-07-03T04:52:25;18.60;99.90
24436;DHT22;12616;52.470;13.436;2022-07-03T04:54:52;18.60;99.90
24436;DHT22;12616;52.470;13.436;2022-07-03T04:57:20;18.70;99.90
24436;DHT22;12616;52.470;13.436;2022-07-03T04:59:47;18.70;99.90
24436;DHT22;12616;52.470;13.436;2022-07-03T05:02:13;18.80;99.90
24436;DHT22;12616;52.470;13.436;2022-07-03T05:04:40;18.90;99.90
24436;DHT22;12616;52.470;13.436;2022-07-03T05:07:07;18.90;99.90
24436;DHT22;12616;52.470;13.436;2022-07-03T05:09:34;19.00;99.90
24436;DHT22;12616;52.470;13.436;2022-07-03T05:12:00;19.10;99.90
24436;DHT22;12616;52.470;13.436;2022-07-03T05:14:29;19.20;99.90
24436;DHT22;12616;52.470;13.436;2022-07-03T05:16:55;19.20;99.90
24436;DHT22;12616;52.470;13.436;2022-07-03T05:19:22;19.20;99.90
24436;DHT22;12616;52.470;13.436;2022-07-03T05:21:49;19.30;99.90
24436;DHT22;12616;52.470;13.436;2022-07-03T05:24:15;19.40;99.90
24436;DHT22;12616;52.470;13.436;2022-07-03T05:26:42;19.50;99.90
24436;DHT22;12616;52.470;13.436;2022-07-03T05:29:09;19.60;99.90
24436;DHT22;12616;52.470;13.436;2022-07-03T05:31:37;19.60;99.90
24436;DHT22;12616;52.470;13.436;2022-07-03T05:34:04;19.60;99.90
24436;DHT22;12616;52.470;13.436;2022-07-03T05:36:30;19.70;99.90
24436;DHT22;12616;52.470;13.436;2022-07-03T05:38:57;19.80;99.90
24436;DHT22;12616;52.470;13.436;2022-07-03T05:41:41;19.90;99.90
24436;DHT22;12616;52.470;13.436;2022-07-03T05:44:08;20.00;99.90
24436;DHT22;12616;52.470;13.436;2022-07-03T05:46:36;20.20;99.90
24436;DHT22;12616;52.470;13.436;2022-07-03T05:49:03;20.20;99.90
24436;DHT22;12616;52.470;13.436;2022-07-03T05:51:30;20.30;99.90
24436;DHT22;12616;52.470;13.436;2022-07-03T05:53:57;20.40;99.90
24436;DHT22;12616;52.470;13.436;2022-07-03T05:56:24;20.60;99.90
24436;DHT22;12616;52.470;13.436;2022-07-03T05:58:51;20.60;99.90
24436;DHT22;12616;52.470;13.436;2022-07-03T06:01:18;20.70;99.90
24436;DHT22;12616;52.470;13.436;2022-07-03T06:03:46;20.80;99.90
24436;DHT22;12616;52.470;13.436;2022-07-03T06:06:13;20.90;99.90
24436;DHT22;12616;52.470;13.436;2022-07-03T06:08:39;20.90;99.90
24436;DHT22;12616;52.470;13.436;2022-07-03T06:11:06;20.90;99.90
24436;DHT22;12616;52.470;13.436;2022-07-03T06:13:33;21.00;99.90
24436;DHT22;12616;52.470;13.436;2022-07-03T06:16:00;21.10;99.90
24436;DHT22;12616;52.470;13.436;2022-07-03T06:18:26;21.10;99.90
24436;DHT22;12616;52.470;13.436;2022-07-03T06:20:55;21.20;99.90
24436;DHT22;12616;52.470;13.436;2022-07-03T06:23:21;21.20;99.90
24436;DHT22;12616;52.470;13.436;2022-07-03T06:25:48;21.20;99.90
24436;DHT22;12616;52.470;13.436;2022-07-03T06:28:15;21.30;99.90
24436;DHT22;12616;52.470;13.436;2022-07-03T06:30:42;21.30;99.90
24436;DHT22;12616;52.470;13.436;2022-07-03T06:33:09;21.40;99.90
24436;DHT22;12616;52.470;13.436;2022-07-03T06:35:35;21.30;99.90
24436;DHT22;12616;52.470;13.436;2022-07-03T06:38:03;21.40;99.90
24436;DHT22;12616;52.470;13.436;2022-07-03T06:40:30;21.40;99.90
24436;DHT22;12616;52.470;13.436;2022-07-03T06:42:57;21.50;99.90
24436;DHT22;12616;52.470;13.436;2022-07-03T06:45:24;21.60;99.90
24436;DHT22;12616;52.470;13.436;2022-07-03T06:47:51;21.60;99.90
24436;DHT22;12616;52.470;13.436;2022-07-03T06:50:18;21.70;99.90
24436;DHT22;12616;52.470;13.436;2022-07-03T06:52:45;21.80;99.90
24436;DHT22;12616;52.470;13.436;2022-07-03T06:55:13;21.80;99.90
24436;DHT22;12616;52.470;13.436;2022-07-03T06:57:40;21.90;99.90
24436;DHT22;12616;52.470;13.436;2022-07-03T07:00:08;22.10;99.90
24436;DHT22;12616;52.470;13.436;2022-07-03T07:02:35;22.10;99.90
24436;DHT22;12616;52.470;13.436;2022-07-03T07:05:02;22.20;99.90
24436;DHT22;12616;52.470;13.436;2022-07-03T07:07:29;22.30;99.90
24436;DHT22;12616;52.470;13.436;2022-07-03T07:09:57;22.40;99.90
24436;DHT22;12616;52.470;13.436;2022-07-03T07:12:25;22.40;99.90
24436;DHT22;12616;52.470;13.436;2022-07-03T07:14:51;22.40;99.90
24436;DHT22;12616;52.470;13.436;2022-07-03T07:17:18;22.40;99.90
24436;DHT22;12616;52.470;13.436;2022-07-03T07:19:45;22.40;99.90
24436;DHT22;12616;52.470;13.436;2022-07-03T07:22:11;22.60;99.90
24436;DHT22;12616;52.470;13.436;2022-07-03T07:24:38;22.60;99.90
24436;DHT22;12616;52.470;13.436;2022-07-03T07:27:05;22.70;99.90
24436;DHT22;12616;52.470;13.436;2022-07-03T07:29:33;22.80;99.90
24436;DHT22;12616;52.470;13.436;2022-07-03T07:32:00;22.90;99.90
24436;DHT22;12616;52.470;13.436;2022-07-03T07:34:27;22.90;99.90
24436;DHT22;12616;52.470;13.436;2022-07-03T07:36:53;23.00;99.90
24436;DHT22;12616;52.470;13.436;2022-07-03T07:39:20;23.00;99.90
24436;DHT22;12616;52.470;13.436;2022-07-03T07:41:47;23.10;99.90
24436;DHT22;12616;52.470;13.436;2022-07-03T07:44:14;23.20;99.90
24436;DHT22;12616;52.470;13.436;2022-07-03T07:46:42;23.30;99.90
24436;DHT22;12616;52.470;13.436;2022-07-03T07:49:08;23.40;99.90
24436;DHT22;12616;52.470;13.436;2022-07-03T07:51:35;23.40;99.90
24436;DHT22;12616;52.470;13.436;2022-07-03T07:54:02;23.50;99.90
24436;DHT22;12616;52.470;13.436;2022-07-03T07:56:29;23.60;99.90
24436;DHT22;12616;52.470;13.436;2022-07-03T07:58:55;23.60;99.90
24436;DHT22;12616;52.470;13.436;2022-07-03T08:01:22;23.70;99.90
24436;DHT22;12616;52.470;13.436;2022-07-03T08:04:08;23.70;99.90
24436;DHT22;12616;52.470;13.436;2022-07-03T08:06:52;23.80;99.90
24436;DHT22;12616;52.470;13.436;2022-07-03T08:09:19;23.80;99.90
24436;DHT22;12616;52.470;13.436;2022-07-03T08:11:45;23.80;99.90
24436;DHT22;12616;52.470;13.436;2022-07-03T08:14:12;23.80;99.90
24436;DHT22;12616;52.470;13.436;2022-07-03T08:16:39;23.90;99.90
24436;DHT22;12616;52.470;13.436;2022-07-03T08:19:08;23.90;99.90
24436;DHT22;12616;52.470;13.436;2022-07-03T08:21:34;24.00;99.90
24436;DHT22;12616;52.470;13.436;2022-07-03T08:26:32;24.10;99.90
24436;DHT22;12616;52.470;13.436;2022-07-03T08:28:58;24.10;99.90
24436;DHT22;12616;52.470;13.436;2022-07-03T08:31:25;24.10;99.90
24436;DHT22;12616;52.470;13.436;2022-07-03T08:33:52;24.10;99.90
24436;DHT22;12616;52.470;13.436;2022-07-03T08:36:20;24.10;99.90
24436;DHT22;12616;52.470;13.436;2022-07-03T08:38:47;24.20;99.90
24436;DHT22;12616;52.470;13.436;2022-07-03T08:41:14;24.20;99.90
24436;DHT22;12616;52.470;13.436;2022-07-03T08:43:42;24.30;99.90
24436;DHT22;12616;52.470;13.436;2022-07-03T08:46:10;24.30;99.90
24436;DHT22;12616;52.470;13.436;2022-07-03T08:48:37;24.50;99.90
24436;DHT22;12616;52.470;13.436;2022-07-03T08:51:06;24.60;99.90
24436;DHT22;12616;52.470;13.436;2022-07-03T08:53:34;24.70;99.90
24436;DHT22;12616;52.470;13.436;2022-07-03T08:56:02;24.70;99.90
24436;DHT22;12616;52.470;13.436;2022-07-03T08:58:30;24.60;99.90
24436;DHT22;12616;52.470;13.436;2022-07-03T09:00:57;24.70;99.90
24436;DHT22;12616;52.470;13.436;2022-07-03T09:03:25;24.80;99.90
24436;DHT22;12616;52.470;13.436;2022-07-03T09:05:52;24.90;99.90
24436;DHT22;12616;52.470;13.436;2022-07-03T09:08:20;24.80;99.90
24436;DHT22;12616;52.470;13.436;2022-07-03T09:10:49;24.80;99.90
24436;DHT22;12616;52.470;13.436;2022-07-03T09:13:16;24.80;99.90
24436;DHT22;12616;52.470;13.436;2022-07-03T09:15:43;24.90;99.90
24436;DHT22;12616;52.470;13.436;2022-07-03T09:18:10;25.00;99.90
24436;DHT22;12616;52.470;13.436;2022-07-03T09:20:38;25.20;99.90
24436;DHT22;12616;52.470;13.436;2022-07-03T09:23:13;25.20;99.90
24436;DHT22;12616;52.470;13.436;2022-07-03T09:25:55;25.20;99.90
24436;DHT22;12616;52.470;13.436;2022-07-03T09:28:22;25.20;99.90
24436;DHT22;12616;52.470;13.436;2022-07-03T09:30:57;25.30;99.90
24436;DHT22;12616;52.470;13.436;2022-07-03T09:33:23;25.20;99.90
24436;DHT22;12616;52.470;13.436;2022-07-03T09:35:53;25.30;99.90
24436;DHT22;12616;52.470;13.436;2022-07-03T09:38:21;25.30;99.90
24436;DHT22;12616;52.470;13.436;2022-07-03T09:40:49;25.30;99.90
24436;DHT22;12616;52.470;13.436;2022-07-03T09:43:22;25.50;99.90
24436;DHT22;12616;52.470;13.436;2022-07-03T09:45:54;25.60;99.90
24436;DHT22;12616;52.470;13.436;2022-07-03T09:48:22;25.50;99.90
24436;DHT22;12616;52.470;13.436;2022-07-03T09:50:49;25.50;99.90
24436;DHT22;12616;52.470;13.436;2022-07-03T09:53:16;25.60;99.90
24436;DHT22;12616;52.470;13.436;2022-07-03T09:55:55;25.70;99.90
24436;DHT22;12616;52.470;13.436;2022-07-03T09:58:23;25.80;99.90
24436;DHT22;12616;52.470;13.436;2022-07-03T10:00:50;25.90;99.90
24436;DHT22;12616;52.470;13.436;2022-07-03T10:03:20;25.80;99.90
24436;DHT22;12616;52.470;13.436;2022-07-03T10:05:47;25.80;99.90
24436;DHT22;12616;52.470;13.436;2022-07-03T10:08:14;25.80;99.90
24436;DHT22;12616;52.470;13.436;2022-07-03T10:10:43;25.80;99.90
24436;DHT22;12616;52.470;13.436;2022-07-03T10:13:10;25.80;99.90
24436;DHT22;12616;52.470;13.436;2022-07-03T10:15:39;25.90;99.90
24436;DHT22;12616;52.470;13.436;2022-07-03T10:18:07;26.00;99.90
24436;DHT22;12616;52.470;13.436;2022-07-03T10:20:35;26.00;99.90
24436;DHT22;12616;52.470;13.436;2022-07-03T10:23:02;26.10;99.90
24436;DHT22;12616;52.470;13.436;2022-07-03T10:25:30;26.20;99.90
24436;DHT22;12616;52.470;13.436;2022-07-03T10:27:57;26.20;99.90
24436;DHT22;12616;52.470;13.436;2022-07-03T10:30:25;26.10;99.80
24436;DHT22;12616;52.470;13.436;2022-07-03T10:32:54;26.30;99.90
24436;DHT22;12616;52.470;13.436;2022-07-03T10:35:24;26.40;99.90
24436;DHT22;12616;52.470;13.436;2022-07-03T10:38:16;26.40;99.90
24436;DHT22;12616;52.470;13.436;2022-07-03T10:40:53;26.40;99.90
24436;DHT22;12616;52.470;13.436;2022-07-03T10:43:39;26.50;99.90
24436;DHT22;12616;52.470;13.436;2022-07-03T10:46:25;26.30;99.90
24436;DHT22;12616;52.470;13.436;2022-07-03T10:49:01;26.40;99.90
24436;DHT22;12616;52.470;13.436;2022-07-03T10:51:30;26.50;99.90
24436;DHT22;12616;52.470;13.436;2022-07-03T10:54:14;26.60;99.90
24436;DHT22;12616;52.470;13.436;2022-07-03T10:57:14;26.70;99.90
24436;DHT22;12616;52.470;13.436;2022-07-03T11:02:44;26.70;99.90
24436;DHT22;12616;52.470;13.436;2022-07-03T11:05:25;26.70;99.90
24436;DHT22;12616;52.470;13.436;2022-07-03T11:08:09;26.70;99.90
24436;DHT22;12616;52.470;13.436;2022-07-03T11:10:38;26.90;99.90
24436;DHT22;12616;52.470;13.436;2022-07-03T11:13:13;26.90;99.90
24436;DHT22;12616;52.470;13.436;2022-07-03T11:15:46;27.00;99.90
24436;DHT22;12616;52.470;13.436;2022-07-03T11:18:28;26.90;99.90
24436;DHT22;12616;52.470;13.436;2022-07-03T11:21:12;27.00;99.90
24436;DHT22;12616;52.470;13.436;2022-07-03T11:23:53;27.20;99.90
24436;DHT22;12616;52.470;13.436;2022-07-03T11:26:23;27.30;99.90
24436;DHT22;12616;52.470;13.436;2022-07-03T11:28:51;27.40;99.90
24436;DHT22;12616;52.470;13.436;2022-07-03T11:31:19;27.40;99.90
24436;DHT22;12616;52.470;13.436;2022-07-03T11:33:56;27.50;97.40
24436;DHT22;12616;52.470;13.436;2022-07-03T11:36:25;27.50;99.90
24436;DHT22;12616;52.470;13.436;2022-07-03T11:39:08;27.50;99.90
24436;DHT22;12616;52.470;13.436;2022-07-03T11:41:45;27.60;96.30
24436;DHT22;12616;52.470;13.436;2022-07-03T11:44:19;27.40;95.00
24436;DHT22;12616;52.470;13.436;2022-07-03T11:46:51;27.60;94.00
24436;DHT22;12616;52.470;13.436;2022-07-03T11:49:20;27.60;99.90
24436;DHT22;12616;52.470;13.436;2022-07-03T11:51:59;27.70;99.10
24436;DHT22;12616;52.470;13.436;2022-07-03T11:54:30;27.80;96.50
24436;DHT22;12616;52.470;13.436;2022-07-03T11:56:57;27.80;97.70
24436;DHT22;12616;52.470;13.436;2022-07-03T11:59:24;27.90;99.90
24436;DHT22;12616;52.470;13.436;2022-07-03T12:01:51;27.80;99.70
24436;DHT22;12616;52.470;13.436;2022-07-03T12:04:19;27.60;91.90
24436;DHT22;12616;52.470;13.436;2022-07-03T12:06:48;27.80;96.80
24436;DHT22;12616;52.470;13.436;2022-07-03T12:09:18;27.90;96.50
24436;DHT22;12616;52.470;13.436;2022-07-03T12:11:53;28.00;98.10
24436;DHT22;12616;52.470;13.436;2022-07-03T12:14:41;28.20;97.20
24436;DHT22;12616;52.470;13.436;2022-07-03T12:17:09;28.20;96.90
24436;DHT22;12616;52.470;13.436;2022-07-03T12:19:36;28.20;94.90
24436;DHT22;12616;52.470;13.436;2022-07-03T12:22:04;28.10;97.30
24436;DHT22;12616;52.470;13.436;2022-07-03T12:24:33;28.10;99.70
24436;DHT22;12616;52.470;13.436;2022-07-03T12:27:02;28.00;95.20
24436;DHT22;12616;52.470;13.436;2022-07-03T12:29:29;27.70;95.80
24436;DHT22;12616;52.470;13.436;2022-07-03T12:31:56;27.50;99.90
24436;DHT22;12616;52.470;13.436;2022-07-03T12:34:24;26.80;99.90
24436;DHT22;12616;52.470;13.436;2022-07-03T12:36:57;25.90;99.90
24436;DHT22;12616;52.470;13.436;2022-07-03T12:39:44;25.30;99.90
24436;DHT22;12616;52.470;13.436;2022-07-03T12:42:18;25.00;99.90
24436;DHT22;12616;52.470;13.436;2022-07-03T12:44:58;25.20;99.90
24436;DHT22;12616;52.470;13.436;2022-07-03T12:47:25;25.30;99.90
24436;DHT22;12616;52.470;13.436;2022-07-03T12:49:59;25.20;99.90
24436;DHT22;12616;52.470;13.436;2022-07-03T12:52:27;25.30;99.90
24436;DHT22;12616;52.470;13.436;2022-07-03T12:54:56;25.30;99.90
24436;DHT22;12616;52.470;13.436;2022-07-03T12:57:24;25.50;99.90
24436;DHT22;12616;52.470;13.436;2022-07-03T13:00:10;25.50;99.90
24436;DHT22;12616;52.470;13.436;2022-07-03T13:02:38;25.70;99.90
24436;DHT22;12616;52.470;13.436;2022-07-03T13:05:15;25.90;99.90
24436;DHT22;12616;52.470;13.436;2022-07-03T13:07:43;26.30;99.90
24436;DHT22;12616;52.470;13.436;2022-07-03T13:10:13;26.80;99.90
24436;DHT22;12616;52.470;13.436;2022-07-03T13:12:49;27.10;99.90
24436;DHT22;12616;52.470;13.436;2022-07-03T13:15:16;27.30;99.90
24436;DHT22;12616;52.470;13.436;2022-07-03T13:18:05;27.50;99.90
24436;DHT22;12616;52.470;13.436;2022-07-03T13:20:33;27.70;99.90
24436;DHT22;12616;52.470;13.436;2022-07-03T13:23:01;27.90;99.90
24436;DHT22;12616;52.470;13.436;2022-07-03T13:25:31;28.10;99.90
24436;DHT22;12616;52.470;13.436;2022-07-03T13:28:06;28.30;99.90
24436;DHT22;12616;52.470;13.436;2022-07-03T13:30:33;28.30;99.40
24436;DHT22;12616;52.470;13.436;2022-07-03T13:33:00;28.50;99.90
24436;DHT22;12616;52.470;13.436;2022-07-03T13:35:27;28.50;99.90
24436;DHT22;12616;52.470;13.436;2022-07-03T13:37:54;28.50;99.90
24436;DHT22;12616;52.470;13.436;2022-07-03T13:40:21;28.50;99.90
24436;DHT22;12616;52.470;13.436;2022-07-03T13:42:50;28.60;99.90
24436;DHT22;12616;52.470;13.436;2022-07-03T13:45:16;28.80;99.90
24436;DHT22;12616;52.470;13.436;2022-07-03T13:47:43;28.60;99.90
24436;DHT22;12616;52.470;13.436;2022-07-03T13:50:10;28.50;99.90
24436;DHT22;12616;52.470;13.436;2022-07-03T13:52:37;28.60;99.90
24436;DHT22;12616;52.470;13.436;2022-07-03T13:55:04;28.60;99.90
24436;DHT22;12616;52.470;13.436;2022-07-03T13:57:31;28.50;99.90
24436;DHT22;12616;52.470;13.436;2022-07-03T14:00:00;28.50;95.80
24436;DHT22;12616;52.470;13.436;2022-07-03T14:02:27;28.50;99.90
24436;DHT22;12616;52.470;13.436;2022-07-03T14:04:53;28.40;99.30
24436;DHT22;12616;52.470;13.436;2022-07-03T14:07:20;28.40;98.50
24436;DHT22;12616;52.470;13.436;2022-07-03T14:09:47;28.40;98.00
24436;DHT22;12616;52.470;13.436;2022-07-03T14:12:13;28.30;95.90
24436;DHT22;12616;52.470;13.436;2022-07-03T14:14:40;27.90;84.90
24436;DHT22;12616;52.470;13.436;2022-07-03T14:17:08;27.90;96.80
24436;DHT22;12616;52.470;13.436;2022-07-03T14:19:35;27.80;90.60
24436;DHT22;12616;52.470;13.436;2022-07-03T14:22:01;28.00;99.90
24436;DHT22;12616;52.470;13.436;2022-07-03T14:26:55;28.00;98.60
24436;DHT22;12616;52.470;13.436;2022-07-03T14:29:40;27.90;99.90
24436;DHT22;12616;52.470;13.436;2022-07-03T14:32:25;27.80;98.30
24436;DHT22;12616;52.470;13.436;2022-07-03T14:34:55;27.90;99.90
24436;DHT22;12616;52.470;13.436;2022-07-03T14:37:22;28.00;98.10
24436;DHT22;12616;52.470;13.436;2022-07-03T14:39:49;28.10;99.90
24436;DHT22;12616;52.470;13.436;2022-07-03T14:42:16;28.20;97.00
24436;DHT22;12616;52.470;13.436;2022-07-03T14:44:43;27.80;99.90
24436;DHT22;12616;52.470;13.436;2022-07-03T14:47:10;28.00;99.90
24436;DHT22;12616;52.470;13.436;2022-07-03T14:49:39;27.80;99.90
24436;DHT22;12616;52.470;13.436;2022-07-03T14:52:07;27.70;99.90
24436;DHT22;12616;52.470;13.436;2022-07-03T14:54:34;27.60;99.90
24436;DHT22;12616;52.470;13.436;2022-07-03T14:57:10;27.60;99.90
24436;DHT22;12616;52.470;13.436;2022-07-03T14:59:51;27.70;99.90
24436;DHT22;12616;52.470;13.436;2022-07-03T15:02:22;27.80;99.90
24436;DHT22;12616;52.470;13.436;2022-07-03T15:05:02;28.00;99.90
24436;DHT22;12616;52.470;13.436;2022-07-03T15:07:38;28.20;98.00
24436;DHT22;12616;52.470;13.436;2022-07-03T15:10:07;28.40;97.20
24436;DHT22;12616;52.470;13.436;2022-07-03T15:12:40;28.50;99.90
24436;DHT22;12616;52.470;13.436;2022-07-03T15:15:09;28.70;99.90
24436;DHT22;12616;52.470;13.436;2022-07-03T15:17:37;28.80;99.90
24436;DHT22;12616;52.470;13.436;2022-07-03T15:20:07;28.80;99.50
24436;DHT22;12616;52.470;13.436;2022-07-03T15:22:38;28.70;99.90
24436;DHT22;12616;52.470;13.436;2022-07-03T15:25:07;28.70;99.90
24436;DHT22;12616;52.470;13.436;2022-07-03T15:27:35;28.80;99.90
24436;DHT22;12616;52.470;13.436;2022-07-03T15:30:03;28.90;99.90
24436;DHT22;12616;52.470;13.436;2022-07-03T15:32:30;28.90;99.80
24436;DHT22;12616;52.470;13.436;2022-07-03T15:34:57;28.80;93.20
24436;DHT22;12616;52.470;13.436;2022-07-03T15:37:39;28.90;93.10
24436;DHT22;12616;52.470;13.436;2022-07-03T15:40:16;28.90;97.40